createdAt,value
2024-01-19T00:01:12.157Z,98.14
2024-01-19T00:05:14.493Z,98.57
2024-01-19T00:09:16.851Z,97.99
2024-01-19T00:13:19.056Z,98.27
2024-01-19T00:17:21.346Z,98.02
2024-01-19T00:21:23.469Z,97.81
2024-01-19T00:25:25.753Z,98.13
2024-01-19T00:29:27.827Z,97.99
2024-01-19T00:33:30.117Z,98.74
2024-01-19T00:37:32.232Z,99.72
2024-01-19T00:41:34.423Z,100.00
2024-01-19T00:45:36.924Z,100.00
2024-01-19T00:49:39.410Z,100.00
2024-01-19T00:53:41.683Z,100.00
2024-01-19T00:57:43.843Z,100.00
2024-01-19T01:01:45.960Z,100.00
2024-01-19T01:05:48.127Z,99.84
2024-01-19T01:09:50.491Z,99.40
2024-01-19T01:13:52.642Z,99.27
2024-01-19T01:17:54.814Z,99.79
2024-01-19T01:21:56.990Z,100.00
2024-01-19T01:25:59.221Z,99.99
2024-01-19T01:30:06.579Z,100.00
2024-01-19T01:34:09.621Z,99.98
2024-01-19T01:38:11.845Z,99.91
2024-01-19T01:42:14.175Z,98.96
2024-01-19T01:46:16.352Z,98.72
2024-01-19T01:50:19.634Z,98.91
2024-01-19T01:54:22.103Z,98.49
2024-01-19T01:58:24.413Z,97.89
2024-01-19T02:02:26.607Z,97.24
2024-01-19T02:06:29.499Z,96.69
2024-01-19T02:10:31.673Z,95.79
2024-01-19T02:14:34.051Z,94.84
2024-01-19T02:18:36.249Z,94.93
2024-01-19T02:22:40.343Z,94.48
2024-01-19T02:26:42.879Z,94.58
2024-01-19T02:30:45.682Z,95.69
2024-01-19T02:34:47.866Z,97.32
2024-01-19T02:38:50.197Z,97.49
2024-01-19T02:42:52.352Z,97.77
2024-01-19T02:46:54.493Z,98.28
2024-01-19T02:50:56.652Z,98.33
2024-01-19T02:54:58.802Z,98.94
2024-01-19T02:59:00.893Z,97.65
2024-01-19T03:03:03.088Z,97.66
2024-01-19T03:07:05.213Z,98.07
2024-01-19T03:11:07.304Z,97.42
2024-01-19T03:15:09.841Z,98.24
2024-01-19T03:19:12.216Z,98.11
2024-01-19T03:23:14.367Z,99.46
2024-01-19T03:27:16.468Z,100.00
2024-01-19T03:31:18.638Z,100.00
2024-01-19T03:35:21.024Z,100.00
2024-01-19T03:39:24.419Z,100.00
2024-01-19T03:43:26.463Z,100.00
2024-01-19T03:47:28.997Z,100.00
2024-01-19T03:51:31.153Z,100.00
2024-01-19T03:55:33.266Z,100.00
2024-01-19T03:59:35.559Z,100.00
2024-01-19T04:03:37.892Z,100.00
2024-01-19T04:07:40.089Z,100.00
2024-01-19T04:11:42.206Z,100.00
2024-01-19T04:15:44.482Z,100.00
2024-01-19T04:19:46.616Z,100.00
2024-01-19T04:23:49.474Z,100.00
2024-01-19T04:27:52.182Z,100.00
2024-01-19T04:31:54.654Z,100.00
2024-01-19T04:35:56.764Z,100.00
2024-01-19T04:39:58.833Z,100.00
2024-01-19T04:44:00.883Z,100.00
2024-01-19T04:48:03.567Z,100.00
2024-01-19T04:52:05.805Z,100.00
2024-01-19T04:56:08.321Z,100.00
2024-01-19T05:00:10.950Z,100.00
2024-01-19T05:04:13.257Z,100.00
2024-01-19T05:08:15.379Z,100.00
2024-01-19T05:12:17.717Z,100.00
2024-01-19T05:16:19.786Z,100.00
2024-01-19T05:20:22.081Z,100.00
2024-01-19T05:24:24.169Z,100.00
2024-01-19T05:28:26.273Z,100.00
2024-01-19T05:32:28.431Z,100.00
2024-01-19T05:36:30.539Z,100.00
2024-01-19T05:40:32.709Z,100.00
2024-01-19T05:44:34.837Z,100.00
2024-01-19T05:48:36.947Z,100.00
2024-01-19T05:52:39.141Z,100.00
2024-01-19T05:56:41.198Z,100.00
2024-01-19T06:00:44.146Z,100.00
2024-01-19T06:04:46.226Z,100.00
2024-01-19T06:08:48.294Z,100.00
2024-01-19T06:12:50.427Z,100.00
2024-01-19T06:16:53.867Z,100.00
2024-01-19T06:20:56.318Z,100.00
2024-01-19T06:24:58.485Z,100.00
2024-01-19T06:29:00.514Z,100.00
2024-01-19T06:33:06.427Z,100.00
2024-01-19T06:37:08.572Z,100.00
2024-01-19T06:41:10.675Z,99.94
2024-01-19T06:45:15.131Z,100.00
2024-01-19T06:49:18.051Z,99.00
2024-01-19T06:53:20.118Z,97.65
2024-01-19T06:57:22.339Z,97.19
2024-01-19T07:01:24.367Z,93.00
2024-01-19T07:05:26.835Z,93.16
2024-01-19T07:09:29.317Z,93.75
2024-01-19T07:13:31.365Z,94.05
2024-01-19T07:17:33.508Z,93.56
2024-01-19T07:21:41.880Z,90.66
2024-01-19T07:25:43.933Z,90.19
2024-01-19T07:29:46.070Z,90.36
2024-01-19T07:33:48.334Z,88.47
2024-01-19T07:37:50.484Z,86.47
2024-01-19T07:41:52.853Z,85.75
2024-01-19T07:45:55.054Z,85.86
2024-01-19T07:49:57.089Z,86.20
2024-01-19T07:53:59.389Z,86.21
2024-01-19T07:58:03.796Z,87.25
2024-01-19T08:02:08.364Z,86.84
2024-01-19T08:06:11.518Z,86.25
2024-01-19T08:10:13.723Z,87.16
2024-01-19T08:14:15.946Z,90.09
2024-01-19T08:18:18.130Z,91.53
2024-01-19T08:22:20.255Z,92.15
2024-01-19T08:26:22.805Z,92.46
2024-01-19T08:30:24.957Z,92.72
2024-01-19T08:34:28.889Z,92.51
2024-01-19T08:38:30.965Z,92.88
2024-01-19T08:42:33.563Z,92.26
2024-01-19T08:46:35.854Z,94.28
2024-01-19T08:50:37.965Z,92.46
2024-01-19T08:54:40.135Z,91.30
2024-01-19T08:58:42.275Z,91.08
2024-01-19T09:02:50.184Z,90.97
2024-01-19T09:07:00.098Z,89.85
2024-01-19T09:11:02.573Z,89.00
2024-01-19T09:15:05.359Z,89.29
2024-01-19T09:19:07.584Z,87.61
2024-01-19T09:23:09.677Z,87.35
2024-01-19T09:27:11.726Z,85.61
2024-01-19T09:31:14.729Z,85.69
2024-01-19T09:35:16.855Z,84.46
2024-01-19T09:39:20.464Z,84.78
2024-01-19T09:43:23.227Z,83.41
2024-01-19T09:47:31.854Z,83.29
2024-01-19T09:51:56.363Z,82.41
2024-01-19T09:55:58.659Z,82.65
2024-01-19T10:00:00.905Z,81.85
2024-01-19T10:04:07.490Z,80.92
2024-01-19T10:08:12.867Z,80.44
2024-01-19T10:12:18.441Z,79.65
2024-01-19T10:16:20.580Z,79.53
2024-01-19T10:20:23.050Z,77.31
2024-01-19T10:24:25.567Z,78.05
2024-01-19T10:28:34.446Z,78.71
2024-01-19T10:32:41.510Z,78.11
2024-01-19T10:36:43.718Z,79.37
2024-01-19T10:40:46.817Z,76.71
2024-01-19T10:44:48.924Z,75.96
2024-01-19T10:48:51.894Z,75.94
2024-01-19T10:52:56.253Z,75.17
2024-01-19T10:57:06.150Z,75.69
2024-01-19T11:01:19.237Z,76.06
2024-01-19T11:05:21.704Z,76.25
2024-01-19T11:09:24.280Z,75.16
2024-01-19T11:13:27.417Z,74.68
2024-01-19T11:17:29.914Z,73.54
2024-01-19T11:21:32.349Z,73.92
2024-01-19T11:25:53.083Z,73.92
2024-01-19T11:30:10.148Z,72.07
2024-01-19T11:34:54.309Z,73.02
2024-01-19T11:38:56.449Z,72.38
2024-01-19T11:42:58.965Z,73.70
2024-01-19T11:47:01.022Z,72.55
2024-01-19T11:51:03.549Z,73.70
2024-01-19T11:55:27.721Z,73.32
2024-01-19T11:59:30.170Z,73.58
2024-01-19T12:03:32.555Z,73.52
2024-01-19T12:07:34.703Z,73.21
2024-01-19T12:11:36.917Z,73.71
2024-01-19T12:15:44.735Z,73.65
2024-01-19T12:19:47.007Z,73.41
2024-01-19T12:23:53.646Z,73.01
2024-01-19T12:28:08.906Z,74.32
2024-01-19T12:32:14.630Z,73.99
2024-01-19T12:36:18.835Z,73.89
2024-01-19T12:40:22.991Z,72.65
2024-01-19T12:44:25.124Z,70.97
2024-01-19T12:48:32.177Z,70.88
2024-01-19T12:52:37.556Z,71.01
2024-01-19T12:56:39.649Z,70.35
2024-01-19T13:00:43.214Z,69.49
2024-01-19T13:04:45.457Z,69.71
2024-01-19T13:08:47.617Z,70.37
2024-01-19T13:12:49.818Z,70.63
2024-01-19T13:16:54.251Z,71.59
2024-01-19T13:20:56.543Z,71.00
2024-01-19T13:24:58.677Z,70.72
2024-01-19T13:29:00.830Z,70.38
2024-01-19T13:33:03.326Z,70.92
2024-01-19T13:37:05.491Z,70.24
2024-01-19T13:41:09.499Z,70.13
2024-01-19T13:45:11.877Z,71.64
2024-01-19T13:49:13.926Z,72.21
2024-01-19T13:53:17.042Z,73.59
2024-01-19T13:57:19.345Z,73.10
2024-01-19T14:01:21.727Z,71.58
2024-01-19T14:05:24.891Z,72.40
2024-01-19T14:09:27.004Z,71.56
2024-01-19T14:13:29.916Z,71.41
2024-01-19T14:17:32.030Z,70.58
2024-01-19T14:21:34.084Z,69.96
2024-01-19T14:25:36.236Z,71.77
2024-01-19T14:29:39.363Z,71.85
2024-01-19T14:33:43.826Z,71.39
2024-01-19T14:37:50.302Z,72.06
2024-01-19T14:41:52.973Z,70.96
2024-01-19T14:45:55.592Z,70.37
2024-01-19T14:50:00.930Z,69.98
2024-01-19T14:54:03.768Z,69.91
2024-01-19T14:58:05.919Z,70.19
2024-01-19T15:02:08.540Z,70.40
2024-01-19T15:06:10.657Z,70.71
2024-01-19T15:10:14.846Z,71.34
2024-01-19T15:14:17.047Z,71.54
2024-01-19T15:18:21.541Z,72.39
2024-01-19T15:22:25.936Z,72.16
2024-01-19T15:26:28.005Z,73.35
2024-01-19T15:30:36.563Z,72.78
2024-01-19T15:34:42.981Z,73.72
2024-01-19T15:38:46.534Z,73.78
2024-01-19T15:42:48.648Z,73.97
2024-01-19T15:46:50.751Z,74.57
2024-01-19T15:50:52.893Z,74.39
2024-01-19T15:54:55.999Z,73.57
2024-01-19T15:58:58.148Z,73.02
2024-01-19T16:03:00.209Z,73.27
2024-01-19T16:07:02.319Z,73.98
2024-01-19T16:11:06.830Z,74.80
2024-01-19T16:15:09.460Z,75.07
2024-01-19T16:19:12.451Z,75.47
2024-01-19T16:23:14.573Z,76.04
2024-01-19T16:27:16.688Z,75.48
2024-01-19T16:31:19.699Z,76.04
2024-01-19T16:35:27.810Z,75.61
2024-01-19T16:39:37.095Z,76.11
2024-01-19T16:43:39.524Z,76.70
2024-01-19T16:47:41.767Z,77.37
2024-01-19T16:51:45.992Z,77.28
2024-01-19T16:55:48.735Z,77.03
2024-01-19T16:59:51.070Z,77.45
2024-01-19T17:03:53.267Z,77.96
2024-01-19T17:07:56.860Z,77.53
2024-01-19T17:11:58.949Z,78.22
2024-01-19T17:16:01.031Z,78.95
2024-01-19T17:20:06.732Z,78.77
2024-01-19T17:24:09.416Z,80.23
2024-01-19T17:28:13.188Z,80.40
2024-01-19T17:32:15.692Z,81.03
2024-01-19T17:36:18.123Z,81.45
2024-01-19T17:40:20.732Z,84.20
2024-01-19T17:44:23.189Z,83.81
2024-01-19T17:48:25.479Z,84.08
2024-01-19T17:52:37.700Z,83.84
2024-01-19T17:56:40.624Z,85.52
2024-01-19T18:00:42.695Z,84.99
2024-01-19T18:04:44.778Z,85.38
2024-01-19T18:08:46.896Z,86.78
2024-01-19T18:12:48.935Z,87.50
2024-01-19T18:16:51.375Z,86.28
2024-01-19T18:20:53.707Z,87.74
2024-01-19T18:24:55.859Z,87.92
2024-01-19T18:28:58.399Z,89.10
2024-01-19T18:33:00.796Z,87.36
2024-01-19T18:37:04.015Z,87.50
2024-01-19T18:41:06.513Z,87.35
2024-01-19T18:45:09.027Z,86.87
2024-01-19T18:49:11.163Z,86.62
2024-01-19T18:53:13.853Z,85.50
2024-01-19T18:57:16.065Z,85.51
2024-01-19T19:01:19.112Z,83.86
2024-01-19T19:05:22.049Z,84.03
2024-01-19T19:09:26.209Z,85.16
2024-01-19T19:13:28.283Z,88.24
2024-01-19T19:17:30.491Z,87.23
2024-01-19T19:21:33.877Z,86.51
2024-01-19T19:25:36.063Z,87.01
2024-01-19T19:29:38.354Z,86.79
2024-01-19T19:33:41.754Z,86.46
2024-01-19T19:37:43.821Z,86.10
2024-01-19T19:41:48.144Z,85.27
2024-01-19T19:45:52.873Z,86.68
2024-01-19T19:49:55.288Z,86.72
2024-01-19T19:53:57.456Z,86.68
2024-01-19T19:57:59.532Z,84.75
2024-01-19T20:02:01.678Z,84.42
2024-01-19T20:06:03.960Z,84.46
2024-01-19T20:10:06.814Z,84.60
2024-01-19T20:14:09.181Z,84.75
2024-01-19T20:18:11.807Z,84.54
2024-01-19T20:22:14.990Z,84.27
2024-01-19T20:26:17.478Z,84.33
2024-01-19T20:30:20.867Z,84.48
2024-01-19T20:34:24.515Z,84.31
2024-01-19T20:38:29.542Z,84.13
2024-01-19T20:42:31.651Z,84.08
2024-01-19T20:46:33.738Z,83.75
2024-01-19T20:50:35.817Z,83.75
2024-01-19T20:54:37.870Z,84.33
2024-01-19T20:58:39.926Z,83.75
2024-01-19T21:02:42.212Z,83.42
2024-01-19T21:06:45.809Z,83.04
2024-01-19T21:10:48.243Z,84.72
2024-01-19T21:14:50.343Z,85.61
2024-01-19T21:18:53.959Z,86.00
2024-01-19T21:22:56.164Z,86.49
2024-01-19T21:26:58.275Z,86.64
2024-01-19T21:31:00.658Z,86.00
2024-01-19T21:35:04.569Z,85.62
2024-01-19T21:39:06.756Z,85.86
2024-01-19T21:43:08.982Z,86.12
2024-01-19T21:47:11.366Z,86.35
2024-01-19T21:51:16.155Z,86.01
2024-01-19T21:55:18.327Z,86.11
2024-01-19T21:59:20.644Z,86.08
2024-01-19T22:03:22.728Z,85.15
2024-01-19T22:07:25.055Z,84.63
2024-01-19T22:11:27.475Z,84.85
2024-01-19T22:15:29.666Z,81.73
2024-01-19T22:19:31.752Z,81.59
2024-01-19T22:23:35.373Z,80.01
2024-01-19T22:27:37.446Z,80.20
2024-01-19T22:31:40.381Z,81.94
2024-01-19T22:35:42.681Z,81.95
2024-01-19T22:39:49.410Z,82.35
2024-01-19T22:43:53.339Z,81.84
2024-01-19T22:47:55.415Z,81.84
2024-01-19T22:51:58.260Z,82.17
2024-01-19T22:56:01.148Z,82.67
2024-01-19T23:00:05.786Z,82.12
2024-01-19T23:04:08.830Z,80.73
2024-01-19T23:08:11.297Z,80.66
2024-01-19T23:12:13.400Z,80.53
2024-01-19T23:16:15.789Z,81.71
2024-01-19T23:20:18.453Z,82.30
2024-01-19T23:24:20.601Z,82.18
2024-01-19T23:28:22.832Z,81.63
2024-01-19T23:32:25.073Z,81.67
2024-01-19T23:36:27.359Z,81.36
2024-01-19T23:40:29.587Z,79.86
2024-01-19T23:44:31.673Z,80.90
2024-01-19T23:48:34.008Z,80.90
2024-01-19T23:52:36.228Z,81.17
2024-01-19T23:56:38.364Z,80.38
